createdAt,value
2018-01-27T00:01:27.389Z,37.80
2018-01-27T00:03:55.644Z,39.53
2018-01-27T00:06:23.902Z,47.03
2018-01-27T00:08:52.164Z,42.00
2018-01-27T00:11:20.389Z,47.20
2018-01-27T00:13:52.578Z,42.70
2018-01-27T00:16:20.807Z,46.67
2018-01-27T00:18:49.052Z,39.00
2018-01-27T00:21:17.322Z,35.13
2018-01-27T00:23:45.601Z,45.97
2018-01-27T00:26:13.839Z,45.43
2018-01-27T00:28:42.101Z,44.17
2018-01-27T00:31:10.345Z,44.27
2018-01-27T00:33:38.588Z,37.67
2018-01-27T00:36:06.873Z,40.33
2018-01-27T00:38:35.125Z,46.63
2018-01-27T00:41:03.388Z,44.37
2018-01-27T00:43:31.668Z,47.60
2018-01-27T00:45:59.937Z,43.17
2018-01-27T00:48:28.171Z,46.73
2018-01-27T00:50:56.458Z,44.30
2018-01-27T00:53:25.461Z,43.63
2018-01-27T00:55:54.485Z,47.70
2018-01-27T00:58:22.749Z,35.47
2018-01-27T01:00:51.006Z,46.13
2018-01-27T01:03:20.006Z,41.57
2018-01-27T01:05:48.274Z,40.83
2018-01-27T01:08:17.316Z,45.03
2018-01-27T01:10:45.578Z,45.57
2018-01-27T01:13:14.470Z,47.83
2018-01-27T01:15:42.704Z,48.93
2018-01-27T01:18:13.840Z,47.37
2018-01-27T01:20:42.912Z,37.63
2018-01-27T01:23:11.147Z,41.10
2018-01-27T01:25:39.388Z,37.67
2018-01-27T01:28:08.423Z,39.60
2018-01-27T01:30:37.430Z,43.07
2018-01-27T01:33:05.657Z,47.60
2018-01-27T01:35:33.971Z,32.33
2018-01-27T01:38:02.224Z,41.93
2018-01-27T01:40:30.478Z,47.20
2018-01-27T01:43:05.105Z,31.33
2018-01-27T01:45:34.127Z,44.33
2018-01-27T01:48:02.360Z,43.27
2018-01-27T01:50:30.683Z,43.23
2018-01-27T01:52:58.929Z,40.17
2018-01-27T01:55:27.935Z,46.23
2018-01-27T01:57:56.236Z,47.70
2018-01-27T02:00:24.473Z,39.37
2018-01-27T02:02:52.725Z,44.13
2018-01-27T02:05:20.996Z,44.43
2018-01-27T02:07:49.237Z,40.30
2018-01-27T02:10:17.486Z,38.57
2018-01-27T02:12:45.771Z,36.57
2018-01-27T02:15:14.000Z,44.20
2018-01-27T02:17:42.252Z,37.93
2018-01-27T02:20:10.539Z,43.60
2018-01-27T02:22:38.799Z,33.83
2018-01-27T02:25:07.050Z,44.00
2018-01-27T02:27:35.369Z,45.00
2018-01-27T02:30:03.619Z,38.10
2018-01-27T02:32:31.866Z,38.43
2018-01-27T02:35:00.138Z,46.30
2018-01-27T02:37:28.435Z,29.50
2018-01-27T02:39:56.719Z,38.60
2018-01-27T02:42:24.987Z,37.13
2018-01-27T02:44:53.226Z,42.53
2018-01-27T02:47:22.251Z,31.97
2018-01-27T02:49:50.537Z,29.80
2018-01-27T02:52:18.783Z,44.00
2018-01-27T02:54:47.031Z,44.10
2018-01-27T02:57:15.306Z,46.53
2018-01-27T02:59:43.557Z,35.87
2018-01-27T03:02:11.803Z,40.63
2018-01-27T03:04:40.083Z,41.73
2018-01-27T03:07:08.323Z,45.83
2018-01-27T03:09:37.323Z,47.33
2018-01-27T03:12:06.363Z,49.30
2018-01-27T03:14:34.635Z,48.13
2018-01-27T03:17:02.875Z,46.03
2018-01-27T03:19:31.922Z,53.43
2018-01-27T03:22:00.152Z,50.53
2018-01-27T03:24:28.390Z,52.90
2018-01-27T03:26:56.657Z,51.70
2018-01-27T03:29:24.906Z,54.80
2018-01-27T03:31:53.143Z,51.60
2018-01-27T03:34:21.416Z,54.50
2018-01-27T03:36:49.636Z,52.00
2018-01-27T03:39:17.856Z,54.30
2018-01-27T03:41:46.141Z,53.67
2018-01-27T03:44:14.400Z,54.13
2018-01-27T03:46:42.658Z,56.90
2018-01-27T03:49:10.934Z,55.90
2018-01-27T03:51:39.183Z,55.90
2018-01-27T03:54:07.422Z,53.83
2018-01-27T03:56:35.687Z,51.27
2018-01-27T03:59:04.691Z,51.30
2018-01-27T04:01:32.955Z,53.10
2018-01-27T04:04:02.000Z,46.17
2018-01-27T04:06:30.254Z,55.40
2018-01-27T04:08:58.497Z,50.83
2018-01-27T04:11:26.776Z,52.07
2018-01-27T04:13:55.017Z,51.70
2018-01-27T04:16:23.254Z,50.80
2018-01-27T04:18:51.542Z,54.00
2018-01-27T04:21:19.822Z,54.53
2018-01-27T04:23:48.045Z,52.40
2018-01-27T04:26:17.132Z,53.40
2018-01-27T04:28:45.371Z,53.03
2018-01-27T04:31:13.753Z,53.27
2018-01-27T04:33:42.042Z,50.33
2018-01-27T04:36:10.305Z,50.73
2018-01-27T04:38:38.549Z,53.70
2018-01-27T04:41:06.809Z,55.27
2018-01-27T04:43:35.059Z,54.33
2018-01-27T04:46:03.307Z,52.80
2018-01-27T04:48:31.588Z,51.43
2018-01-27T04:50:59.800Z,55.83
2018-01-27T04:53:28.822Z,52.97
2018-01-27T04:55:57.126Z,59.43
2018-01-27T04:58:25.370Z,52.33
2018-01-27T05:00:53.630Z,56.80
2018-01-27T05:03:21.924Z,51.80
2018-01-27T05:05:50.200Z,52.30
2018-01-27T05:08:18.446Z,54.97
2018-01-27T05:10:47.494Z,57.37
2018-01-27T05:13:15.743Z,52.93
2018-01-27T05:15:43.998Z,54.80
2018-01-27T05:18:13.071Z,58.00
2018-01-27T05:20:42.094Z,52.10
2018-01-27T05:23:10.351Z,57.60
2018-01-27T05:25:39.379Z,52.13
2018-01-27T05:28:07.688Z,55.20
2018-01-27T05:30:35.932Z,50.80
2018-01-27T05:33:04.234Z,53.57
2018-01-27T05:35:32.485Z,56.37
2018-01-27T05:38:00.736Z,52.00
2018-01-27T05:40:29.037Z,55.80
2018-01-27T05:42:57.267Z,54.70
2018-01-27T05:45:25.516Z,55.67
2018-01-27T05:47:53.785Z,58.27
2018-01-27T05:50:22.049Z,53.97
2018-01-27T05:52:50.318Z,52.60
2018-01-27T05:55:18.594Z,55.13
2018-01-27T05:57:46.836Z,56.70
2018-01-27T06:00:15.092Z,53.93
2018-01-27T06:02:43.370Z,58.23
2018-01-27T06:05:11.609Z,54.73
2018-01-27T06:07:39.864Z,59.63
2018-01-27T06:10:08.144Z,55.70
2018-01-27T06:12:36.372Z,54.57
2018-01-27T06:15:05.433Z,52.57
2018-01-27T06:17:33.727Z,51.20
2018-01-27T06:20:01.960Z,54.33
2018-01-27T06:22:30.224Z,54.20
2018-01-27T06:24:58.501Z,52.87
2018-01-27T06:27:26.770Z,56.23
2018-01-27T06:29:55.026Z,55.27
2018-01-27T06:32:24.104Z,48.90
2018-01-27T06:34:52.373Z,53.37
2018-01-27T06:37:20.632Z,56.60
2018-01-27T06:39:48.968Z,54.43
2018-01-27T06:42:17.251Z,59.40
2018-01-27T06:44:45.498Z,53.83
2018-01-27T06:47:14.542Z,178.97
2018-01-27T06:49:42.791Z,145.17
2018-01-27T06:52:11.111Z,196.20
2018-01-27T06:54:39.423Z,124.23
2018-01-27T06:57:08.486Z,130.30
2018-01-27T06:59:36.741Z,85.10
2018-01-27T07:02:04.979Z,52.87
2018-01-27T07:04:34.014Z,54.60
2018-01-27T07:07:02.330Z,55.70
2018-01-27T07:09:30.554Z,50.70
2018-01-27T07:11:58.830Z,52.20
2018-01-27T07:14:27.883Z,53.23
2018-01-27T07:16:56.879Z,55.67
2018-01-27T07:19:25.967Z,55.90
2018-01-27T07:21:54.967Z,58.80
2018-01-27T07:24:23.961Z,50.10
2018-01-27T07:26:52.242Z,48.57
2018-01-27T07:29:21.269Z,48.07
2018-01-27T07:31:49.575Z,50.23
2018-01-27T07:34:17.800Z,51.30
2018-01-27T07:36:46.082Z,48.87
2018-01-27T07:39:14.400Z,48.83
2018-01-27T07:41:42.644Z,54.20
2018-01-27T07:44:10.890Z,54.97
2018-01-27T07:46:39.212Z,49.07
2018-01-27T07:49:08.251Z,53.60
2018-01-27T07:51:36.515Z,56.67
2018-01-27T07:54:04.785Z,55.50
2018-01-27T07:56:33.095Z,52.80
2018-01-27T07:59:01.388Z,59.00
2018-01-27T08:01:29.638Z,52.53
2018-01-27T08:03:58.764Z,53.80
2018-01-27T08:06:27.002Z,54.47
2018-01-27T08:08:55.994Z,55.60
2018-01-27T08:11:25.076Z,50.70
2018-01-27T08:13:53.322Z,55.23
2018-01-27T08:16:21.563Z,53.50
2018-01-27T08:18:49.883Z,53.17
2018-01-27T08:21:18.118Z,54.50
2018-01-27T08:23:46.370Z,54.27
2018-01-27T08:26:15.411Z,56.27
2018-01-27T08:28:43.646Z,53.90
2018-01-27T08:31:11.926Z,60.90
2018-01-27T08:33:40.227Z,51.13
2018-01-27T08:36:08.473Z,55.70
2018-01-27T08:38:36.728Z,54.83
2018-01-27T08:41:05.773Z,48.47
2018-01-27T08:43:34.022Z,57.70
2018-01-27T08:46:02.295Z,51.03
2018-01-27T08:48:30.604Z,37.57
2018-01-27T08:50:58.832Z,24.53
2018-01-27T08:53:27.853Z,50.20
2018-01-27T08:55:56.180Z,56.67
2018-01-27T08:58:24.413Z,51.80
2018-01-27T09:00:52.710Z,56.00
2018-01-27T09:03:20.992Z,38.20
2018-01-27T09:05:49.213Z,27.47
2018-01-27T09:08:17.497Z,53.47
2018-01-27T09:10:45.774Z,49.87
2018-01-27T09:13:14.060Z,57.67
2018-01-27T09:15:42.314Z,40.50
2018-01-27T09:18:11.343Z,49.93
2018-01-27T09:20:39.596Z,55.90
2018-01-27T09:23:07.888Z,42.50
2018-01-27T09:25:36.955Z,52.43
2018-01-27T09:28:05.210Z,48.87
2018-01-27T09:30:33.457Z,45.20
2018-01-27T09:33:01.761Z,48.50
2018-01-27T09:35:30.035Z,41.37
2018-01-27T09:37:58.483Z,43.60
2018-01-27T09:40:26.794Z,35.93
2018-01-27T09:42:55.882Z,33.87
2018-01-27T09:45:24.104Z,35.40
2018-01-27T09:47:52.441Z,39.60
2018-01-27T09:50:20.686Z,31.17
2018-01-27T09:52:49.010Z,34.60
2018-01-27T09:55:17.311Z,35.27
2018-01-27T09:57:45.574Z,33.13
2018-01-27T10:00:13.812Z,29.40
2018-01-27T10:02:42.119Z,25.57
2018-01-27T10:05:10.417Z,27.63
2018-01-27T10:07:38.652Z,27.60
2018-01-27T10:10:07.797Z,25.60
2018-01-27T10:12:36.093Z,27.70
2018-01-27T10:15:04.397Z,28.70
2018-01-27T10:17:33.511Z,31.30
2018-01-27T10:20:02.596Z,25.20
2018-01-27T10:22:31.641Z,28.30
2018-01-27T10:24:59.950Z,25.37
2018-01-27T10:27:28.191Z,29.00
2018-01-27T10:29:56.466Z,29.70
2018-01-27T10:32:24.808Z,31.90
2018-01-27T10:34:53.063Z,25.90
2018-01-27T10:37:21.389Z,23.20
2018-01-27T10:39:49.882Z,25.70
2018-01-27T10:42:18.188Z,25.40
2018-01-27T10:44:46.587Z,26.77
2018-01-27T10:47:15.641Z,21.00
2018-01-27T10:49:43.900Z,22.10
2018-01-27T10:52:12.147Z,19.90
2018-01-27T10:54:40.474Z,23.93
2018-01-27T10:57:08.990Z,25.40
2018-01-27T10:59:38.119Z,29.63
2018-01-27T11:02:06.440Z,25.30
2018-01-27T11:04:34.707Z,30.07
2018-01-27T11:07:02.981Z,33.90
2018-01-27T11:09:31.338Z,29.47
2018-01-27T11:11:59.591Z,30.93
2018-01-27T11:14:27.833Z,43.90
2018-01-27T11:16:56.911Z,35.07
2018-01-27T11:19:25.186Z,39.53
2018-01-27T11:21:53.466Z,43.77
2018-01-27T11:24:21.765Z,43.93
2018-01-27T11:26:50.053Z,44.60
2018-01-27T11:29:18.344Z,41.30
2018-01-27T11:31:46.648Z,34.67
2018-01-27T11:34:14.898Z,63.57
2018-01-27T11:36:43.311Z,42.27
2018-01-27T11:39:12.643Z,27.57
2018-01-27T11:41:41.770Z,26.83
2018-01-27T11:44:10.012Z,27.93
2018-01-27T11:46:39.049Z,33.77
2018-01-27T11:49:07.288Z,36.50
2018-01-27T11:51:35.555Z,38.40
2018-01-27T11:54:04.586Z,45.23
2018-01-27T11:56:32.845Z,39.13
2018-01-27T11:59:01.121Z,28.10
2018-01-27T12:01:29.396Z,33.57
2018-01-27T12:03:57.731Z,37.73
2018-01-27T12:06:25.994Z,35.10
2018-01-27T12:08:54.320Z,27.40
2018-01-27T12:11:22.614Z,26.63
2018-01-27T12:13:50.861Z,26.07
2018-01-27T12:16:19.186Z,26.70
2018-01-27T12:18:47.441Z,26.60
2018-01-27T12:21:15.736Z,27.07
2018-01-27T12:23:44.032Z,23.03
2018-01-27T12:26:12.316Z,16.13
2018-01-27T12:28:40.578Z,26.40
2018-01-27T12:31:08.873Z,19.10
2018-01-27T12:33:37.151Z,30.80
2018-01-27T12:36:05.415Z,29.40
2018-01-27T12:38:33.706Z,31.50
2018-01-27T12:41:02.081Z,27.57
2018-01-27T12:43:30.734Z,30.17
2018-01-27T12:45:59.032Z,31.53
2018-01-27T12:48:27.354Z,29.50
2018-01-27T12:50:55.589Z,33.33
2018-01-27T12:53:23.887Z,28.50
2018-01-27T12:55:52.939Z,29.50
2018-01-27T12:58:21.186Z,32.90
2018-01-27T13:00:49.561Z,26.80
2018-01-27T13:03:17.790Z,27.87
2018-01-27T13:05:46.088Z,31.13
2018-01-27T13:08:15.155Z,31.00
2018-01-27T13:10:43.408Z,31.50
2018-01-27T13:13:11.672Z,28.50
2018-01-27T13:15:39.998Z,33.90
2018-01-27T13:18:08.247Z,28.47
2018-01-27T13:20:36.496Z,30.10
2018-01-27T13:23:04.813Z,25.17
2018-01-27T13:25:33.078Z,24.43
2018-01-27T13:28:01.305Z,19.87
2018-01-27T13:30:29.566Z,16.53
2018-01-27T13:32:58.554Z,24.30
2018-01-27T13:35:26.810Z,24.83
2018-01-27T13:37:55.124Z,21.20
2018-01-27T13:40:23.463Z,26.70
2018-01-27T13:42:51.717Z,20.37
2018-01-27T13:45:20.298Z,26.10
2018-01-27T13:47:48.559Z,27.50
2018-01-27T13:50:16.849Z,20.87
2018-01-27T13:52:45.134Z,27.07
2018-01-27T13:55:13.398Z,27.43
2018-01-27T13:57:41.680Z,24.47
2018-01-27T14:00:09.990Z,14.47
2018-01-27T14:02:39.019Z,14.03
2018-01-27T14:05:07.363Z,15.07
2018-01-27T14:07:36.447Z,12.67
2018-01-27T14:10:04.735Z,18.67
2018-01-27T14:12:34.551Z,13.97
2018-01-27T14:15:03.607Z,13.83
2018-01-27T14:17:31.873Z,13.73
2018-01-27T14:20:00.177Z,12.50
2018-01-27T14:22:28.480Z,16.23
2018-01-27T14:24:57.486Z,13.70
2018-01-27T14:27:25.800Z,18.30
2018-01-27T14:29:54.156Z,15.40
2018-01-27T14:32:22.394Z,13.47
2018-01-27T14:34:50.660Z,18.27
2018-01-27T14:37:19.985Z,12.70
2018-01-27T14:39:48.240Z,17.13
2018-01-27T14:42:16.608Z,21.73
2018-01-27T14:44:44.895Z,21.67
2018-01-27T14:47:14.054Z,23.90
2018-01-27T14:49:42.330Z,12.67
2018-01-27T14:52:10.658Z,16.53
2018-01-27T14:54:38.908Z,14.13
2018-01-27T14:57:07.154Z,14.37
2018-01-27T14:59:35.434Z,13.00
2018-01-27T15:02:03.724Z,14.70
2018-01-27T15:04:31.982Z,17.07
2018-01-27T15:07:00.286Z,25.20
2018-01-27T15:09:28.571Z,19.40
2018-01-27T15:11:57.683Z,13.43
2018-01-27T15:14:26.754Z,13.77
2018-01-27T15:16:55.024Z,12.90
2018-01-27T15:19:23.356Z,12.87
2018-01-27T15:21:51.677Z,14.27
2018-01-27T15:24:19.946Z,16.70
2018-01-27T15:26:48.220Z,16.03
2018-01-27T15:29:16.516Z,14.00
2018-01-27T15:31:44.756Z,13.33
2018-01-27T15:34:13.027Z,18.43
2018-01-27T15:36:41.470Z,30.77
2018-01-27T15:39:09.714Z,35.80
2018-01-27T15:41:37.966Z,17.97
2018-01-27T15:44:06.297Z,12.63
2018-01-27T15:46:35.281Z,31.57
2018-01-27T15:49:04.399Z,14.30
2018-01-27T15:51:32.668Z,14.87
2018-01-27T15:54:00.963Z,14.90
2018-01-27T15:56:29.960Z,32.97
2018-01-27T15:58:58.235Z,30.17
2018-01-27T16:01:26.470Z,17.77
2018-01-27T16:03:54.721Z,33.03
2018-01-27T16:06:22.995Z,24.70
2018-01-27T16:08:51.328Z,18.87
2018-01-27T16:11:19.558Z,17.63
2018-01-27T16:13:48.723Z,16.93
2018-01-27T16:16:16.981Z,51.63
2018-01-27T16:18:45.308Z,55.67
2018-01-27T16:21:13.590Z,59.60
2018-01-27T16:23:41.896Z,27.87
2018-01-27T16:26:10.219Z,35.53
2018-01-27T16:28:38.874Z,35.60
2018-01-27T16:31:07.956Z,32.43
2018-01-27T16:33:36.221Z,37.43
2018-01-27T16:36:04.550Z,30.27
2018-01-27T16:38:32.828Z,33.90
2018-01-27T16:41:01.158Z,29.50
2018-01-27T16:43:29.691Z,30.80
2018-01-27T16:45:57.921Z,33.67
2018-01-27T16:48:26.171Z,31.97
2018-01-27T16:50:55.398Z,33.70
2018-01-27T16:53:23.660Z,32.10
2018-01-27T16:55:51.942Z,31.87
2018-01-27T16:58:20.280Z,31.93
2018-01-27T17:00:48.516Z,33.27
2018-01-27T17:03:16.755Z,35.93
2018-01-27T17:05:46.049Z,50.03
2018-01-27T17:08:15.196Z,48.20
2018-01-27T17:10:43.506Z,45.83
2018-01-27T17:13:11.763Z,52.43
2018-01-27T17:15:41.882Z,48.20
2018-01-27T17:18:12.781Z,51.27
2018-01-27T17:20:41.516Z,61.37
2018-01-27T17:23:16.170Z,49.73
2018-01-27T17:25:44.591Z,49.33
2018-01-27T17:28:13.721Z,52.30
2018-01-27T17:30:41.987Z,44.43
2018-01-27T17:33:11.022Z,50.57
2018-01-27T17:35:39.311Z,42.17
2018-01-27T17:38:08.315Z,47.03
2018-01-27T17:40:36.601Z,53.03
2018-01-27T17:43:04.856Z,41.10
2018-01-27T17:45:33.103Z,46.03
2018-01-27T17:48:02.155Z,56.47
2018-01-27T17:50:30.509Z,62.50
2018-01-27T17:52:58.781Z,83.97
2018-01-27T17:55:27.060Z,79.27
2018-01-27T17:57:55.369Z,54.13
2018-01-27T18:00:23.608Z,39.00
2018-01-27T18:02:51.859Z,45.70
2018-01-27T18:05:20.989Z,41.03
2018-01-27T18:07:49.236Z,42.40
2018-01-27T18:10:18.300Z,46.93
2018-01-27T18:12:47.311Z,47.70
2018-01-27T18:15:16.421Z,45.13
2018-01-27T18:17:44.709Z,48.70
2018-01-27T18:20:12.933Z,44.40
2018-01-27T18:22:41.247Z,45.20
2018-01-27T18:25:09.503Z,43.83
2018-01-27T18:27:38.569Z,49.30
2018-01-27T18:30:07.656Z,49.10
2018-01-27T18:32:36.765Z,45.70
2018-01-27T18:35:05.070Z,47.90
2018-01-27T18:37:34.097Z,48.03
2018-01-27T18:40:02.397Z,51.80
2018-01-27T18:42:30.733Z,47.83
2018-01-27T18:44:59.045Z,54.10
2018-01-27T18:47:27.743Z,54.37
2018-01-27T18:49:56.086Z,59.80
2018-01-27T18:52:25.406Z,62.30
2018-01-27T18:54:53.717Z,66.40
2018-01-27T18:57:22.025Z,64.87
2018-01-27T18:59:50.283Z,53.70
2018-01-27T19:02:19.349Z,71.30
2018-01-27T19:04:47.675Z,53.43
2018-01-27T19:07:15.904Z,58.80
2018-01-27T19:09:44.973Z,51.30
2018-01-27T19:12:13.369Z,54.53
2018-01-27T19:14:41.654Z,55.10
2018-01-27T19:17:09.904Z,52.47
2018-01-27T19:19:38.302Z,54.40
2018-01-27T19:22:06.549Z,55.30
2018-01-27T19:24:34.815Z,59.27
2018-01-27T19:27:03.089Z,60.90
2018-01-27T19:29:31.338Z,42.70
2018-01-27T19:32:00.382Z,32.97
2018-01-27T19:34:28.780Z,36.57
2018-01-27T19:36:57.974Z,40.00
2018-01-27T19:39:26.244Z,30.20
2018-01-27T19:41:54.553Z,51.07
2018-01-27T19:44:23.580Z,30.37
2018-01-27T19:46:51.833Z,28.47
2018-01-27T19:49:20.189Z,34.27
2018-01-27T19:51:49.200Z,28.97
2018-01-27T19:54:18.249Z,30.67
2018-01-27T19:56:46.673Z,31.83
2018-01-27T19:59:15.744Z,50.50
2018-01-27T20:01:44.022Z,36.83
2018-01-27T20:04:12.327Z,29.60
2018-01-27T20:06:41.352Z,32.90
2018-01-27T20:09:09.674Z,33.17
2018-01-27T20:11:38.623Z,29.30
2018-01-27T20:14:06.935Z,39.50
2018-01-27T20:16:35.194Z,35.07
2018-01-27T20:19:03.837Z,32.20
2018-01-27T20:21:32.952Z,33.50
2018-01-27T20:24:01.295Z,31.03
2018-01-27T20:26:31.178Z,28.03
2018-01-27T20:28:59.446Z,27.97
2018-01-27T20:31:27.703Z,29.53
2018-01-27T20:33:56.000Z,32.90
2018-01-27T20:36:24.250Z,28.87
2018-01-27T20:38:52.501Z,33.17
2018-01-27T20:41:20.772Z,34.13
2018-01-27T20:43:49.549Z,39.13
2018-01-27T20:46:18.546Z,45.20
2018-01-27T20:48:46.924Z,27.70
2018-01-27T20:51:16.011Z,31.97
2018-01-27T20:53:45.020Z,30.67
2018-01-27T20:56:13.286Z,32.10
2018-01-27T20:58:41.555Z,32.30
2018-01-27T21:01:10.599Z,38.07
2018-01-27T21:03:38.949Z,30.60
2018-01-27T21:06:07.201Z,32.17
2018-01-27T21:08:35.577Z,32.50
2018-01-27T21:11:04.625Z,31.17
2018-01-27T21:13:32.875Z,49.10
2018-01-27T21:16:01.108Z,36.00
2018-01-27T21:18:29.405Z,36.07
2018-01-27T21:20:58.407Z,39.20
2018-01-27T21:23:26.665Z,32.23
2018-01-27T21:25:55.720Z,34.67
2018-01-27T21:28:23.958Z,34.63
2018-01-27T21:30:52.248Z,37.60
2018-01-27T21:33:20.538Z,33.37
2018-01-27T21:35:48.779Z,37.67
2018-01-27T21:38:17.173Z,34.60
2018-01-27T21:40:45.458Z,30.50
2018-01-27T21:43:13.718Z,38.47
2018-01-27T21:45:42.050Z,29.80
2018-01-27T21:48:10.320Z,28.57
2018-01-27T21:50:38.611Z,33.17
2018-01-27T21:53:06.964Z,36.60
2018-01-27T21:55:35.285Z,31.90
2018-01-27T21:58:03.517Z,47.33
2018-01-27T22:00:31.793Z,34.40
2018-01-27T22:03:00.073Z,35.87
2018-01-27T22:05:28.357Z,30.40
2018-01-27T22:07:56.638Z,44.80
2018-01-27T22:10:24.905Z,43.50
2018-01-27T22:12:53.181Z,33.30
2018-01-27T22:15:21.414Z,40.77
2018-01-27T22:17:49.698Z,42.27
2018-01-27T22:20:17.933Z,32.67
2018-01-27T22:22:46.950Z,39.50
2018-01-27T22:25:15.394Z,43.37
2018-01-27T22:27:44.400Z,40.93
2018-01-27T22:30:13.399Z,33.63
2018-01-27T22:32:42.493Z,45.53
2018-01-27T22:35:11.553Z,38.03
2018-01-27T22:37:39.799Z,35.90
2018-01-27T22:40:08.081Z,42.00
2018-01-27T22:42:36.329Z,40.87
2018-01-27T22:45:04.617Z,48.63
2018-01-27T22:47:32.953Z,39.47
2018-01-27T22:50:01.953Z,40.87
2018-01-27T22:52:30.954Z,37.17
2018-01-27T22:54:59.477Z,37.20
2018-01-27T22:57:27.717Z,44.43
2018-01-27T22:59:55.956Z,53.90
2018-01-27T23:02:24.239Z,50.03
2018-01-27T23:04:52.463Z,38.13
2018-01-27T23:07:20.703Z,44.47
2018-01-27T23:09:49.884Z,52.80
2018-01-27T23:12:18.892Z,54.67
2018-01-27T23:14:47.894Z,45.80
2018-01-27T23:17:16.940Z,39.73
2018-01-27T23:19:45.171Z,60.37
2018-01-27T23:22:13.406Z,64.00
2018-01-27T23:24:41.755Z,56.90
2018-01-27T23:27:10.103Z,43.20
2018-01-27T23:29:38.360Z,39.50
2018-01-27T23:32:07.397Z,40.73
2018-01-27T23:34:35.628Z,42.33
2018-01-27T23:37:04.657Z,39.93
2018-01-27T23:39:32.925Z,49.83
2018-01-27T23:42:01.199Z,45.33
2018-01-27T23:44:29.434Z,41.80
2018-01-27T23:46:57.710Z,43.57
2018-01-27T23:49:26.027Z,40.33
2018-01-27T23:51:54.292Z,43.80
2018-01-27T23:54:22.558Z,38.83
2018-01-27T23:56:51.587Z,36.50
2018-01-27T23:59:19.818Z,34.23
